Time;durP1;ratioP1;P1;durP2;ratioP2;P2;SDS_P1;SDS_P2;PMS_P1;PMS_P2;Temp;Humidity;BMP_temperature;BMP_pressure;BME280_temperature;BME280_humidity;BME280_pressure;Samples;Min_cycle;Max_cycle;Signal;HPM_P1;HPM_P2
2021/04/06 00:00:59;;;;;;;2.80;1.85;;;-1.30;99.90;;;;;;5034926;28;20209;-92
2021/04/06 00:03:28;;;;;;;1.85;1.33;;;-1.40;99.90;;;;;;5034533;28;20230;-91
2021/04/06 00:05:58;;;;;;;2.42;1.52;;;-1.40;99.90;;;;;;5034961;28;20218;-92
2021/04/06 00:08:27;;;;;;;4.85;1.60;;;-1.40;99.90;;;;;;5035086;28;20220;-92
2021/04/06 00:10:56;;;;;;;2.08;1.30;;;-1.50;99.90;;;;;;5059363;28;20269;-92
2021/04/06 00:13:25;;;;;;;1.83;1.30;;;-1.50;99.90;;;;;;5053986;28;20177;-92
2021/04/06 00:15:52;;;;;;;3.10;1.42;;;-1.50;99.90;;;;;;5059880;28;20190;-92
2021/04/06 00:18:19;;;;;;;7.60;2.13;;;-1.60;99.90;;;;;;5059397;28;20209;-92
2021/04/06 00:20:48;;;;;;;4.07;1.73;;;-1.70;99.90;;;;;;5042860;28;20248;-92
2021/04/06 00:23:15;;;;;;;4.07;2.03;;;-1.70;99.90;;;;;;5034536;28;20238;-91
2021/04/06 00:25:45;;;;;;;2.75;2.22;;;-1.80;99.90;;;;;;5034162;28;20201;-91
2021/04/06 00:28:16;;;;;;;2.50;1.95;;;-1.80;99.90;;;;;;5033987;28;20225;-92
2021/04/06 00:30:43;;;;;;;7.18;1.67;;;-1.70;99.90;;;;;;5034417;28;20194;-91
2021/04/06 00:33:13;;;;;;;2.47;1.60;;;-1.70;99.90;;;;;;5034046;28;20198;-91
2021/04/06 00:35:40;;;;;;;2.30;1.50;;;-1.70;99.90;;;;;;5033911;28;20657;-91
2021/04/06 00:38:11;;;;;;;3.72;1.50;;;-1.90;99.90;;;;;;5033672;28;20626;-91
2021/04/06 00:40:41;;;;;;;2.63;1.80;;;-2.00;99.90;;;;;;5033850;28;20665;-91
2021/04/06 00:43:13;;;;;;;3.50;1.65;;;-2.00;99.90;;;;;;5033615;28;20308;-91
2021/04/06 00:45:43;;;;;;;5.28;1.70;;;-2.00;99.90;;;;;;5033804;28;20221;-91
2021/04/06 00:48:12;;;;;;;2.88;1.83;;;-1.90;99.90;;;;;;5033399;28;20226;-91
2021/04/06 00:50:40;;;;;;;5.10;1.90;;;-1.90;99.90;;;;;;5033588;28;20623;-91
2021/04/06 00:53:06;;;;;;;3.63;1.80;;;-1.90;99.90;;;;;;5033235;28;20213;-91
2021/04/06 00:55:36;;;;;;;2.50;1.70;;;-1.90;99.90;;;;;;5034369;28;20217;-91
2021/04/06 00:58:10;;;;;;;5.25;2.30;;;-1.90;99.90;;;;;;5038050;28;20720;-90
2021/04/06 01:00:38;;;;;;;2.25;1.65;;;-1.90;99.90;;;;;;5033500;28;20222;-91
2021/04/06 01:03:06;;;;;;;4.53;1.90;;;-1.90;99.90;;;;;;5032984;28;20252;-91
2021/04/06 01:05:34;;;;;;;3.20;2.03;;;-2.00;99.90;;;;;;5033067;28;20206;-91
2021/04/06 01:08:04;;;;;;;2.25;1.90;;;-2.00;99.90;;;;;;5032651;28;20283;-91
2021/04/06 01:10:33;;;;;;;5.78;1.92;;;-2.10;99.90;;;;;;5032849;28;20282;-91
2021/04/06 01:13:00;;;;;;;2.22;1.98;;;-2.10;99.90;;;;;;5033458;28;20198;-91
2021/04/06 01:15:27;;;;;;;5.10;2.80;;;-2.10;99.90;;;;;;5033073;28;20202;-91
2021/04/06 01:17:54;;;;;;;3.20;2.60;;;-2.10;99.90;;;;;;5032808;28;20225;-91
2021/04/06 01:20:22;;;;;;;2.83;1.90;;;-2.10;99.90;;;;;;5032718;28;20279;-91
2021/04/06 01:22:53;;;;;;;5.03;2.35;;;-2.10;99.90;;;;;;5031865;28;20491;-91
2021/04/06 01:25:21;;;;;;;4.93;2.15;;;-2.10;99.90;;;;;;5032333;28;20206;-91
2021/04/06 01:27:48;;;;;;;3.70;2.88;;;-2.10;99.90;;;;;;5032799;28;20234;-91
2021/04/06 01:30:21;;;;;;;3.15;2.50;;;-2.00;99.90;;;;;;5032663;28;20209;-90
2021/04/06 01:32:48;;;;;;;5.50;2.38;;;-2.10;99.90;;;;;;5033188;28;20210;-91
2021/04/06 01:35:15;;;;;;;4.85;2.00;;;-2.10;99.90;;;;;;5032675;28;20206;-91
2021/04/06 01:37:41;;;;;;;1.80;1.70;;;-2.20;99.90;;;;;;5032789;28;20605;-91
2021/04/06 01:40:09;;;;;;;3.10;2.20;;;-2.20;99.90;;;;;;5032414;28;20206;-90
2021/04/06 01:42:37;;;;;;;2.80;1.98;;;-2.30;99.90;;;;;;5032537;28;20325;-91
2021/04/06 01:45:08;;;;;;;3.50;2.20;;;-2.30;99.90;;;;;;5032263;28;20202;-91
2021/04/06 01:47:35;;;;;;;2.70;2.50;;;-2.40;99.90;;;;;;5032284;28;20737;-92
2021/04/06 01:50:02;;;;;;;3.90;1.88;;;-2.40;99.90;;;;;;5032517;28;20190;-91
2021/04/06 01:52:29;;;;;;;3.03;2.20;;;-2.40;99.90;;;;;;5032427;28;20666;-91
2021/04/06 01:55:00;;;;;;;7.00;2.42;;;-2.50;99.90;;;;;;5032524;28;20224;-91
2021/04/06 01:57:30;;;;;;;3.60;2.30;;;-2.50;99.90;;;;;;5032302;28;20229;-91
2021/04/06 02:00:07;;;;;;;5.57;2.55;;;-2.50;99.90;;;;;;5032444;28;20206;-91
2021/04/06 02:02:36;;;;;;;2.53;2.20;;;-2.50;99.90;;;;;;5032215;28;20213;-91
2021/04/06 02:05:07;;;;;;;6.05;2.45;;;-2.50;99.90;;;;;;5031536;28;20663;-91
2021/04/06 02:07:37;;;;;;;5.07;2.30;;;-2.60;99.90;;;;;;5031944;28;20791;-91
2021/04/06 02:10:06;;;;;;;2.95;2.00;;;-2.60;99.90;;;;;;5032271;28;20198;-91
2021/04/06 02:12:38;;;;;;;2.60;2.13;;;-2.60;99.90;;;;;;5033050;28;20210;-91
2021/04/06 02:15:09;;;;;;;5.53;2.30;;;-2.60;99.90;;;;;;5031926;28;20391;-92
2021/04/06 02:17:46;;;;;;;6.95;2.38;;;-2.60;99.90;;;;;;5031889;28;20226;-92
2021/04/06 02:20:19;;;;;;;3.15;1.92;;;-2.60;99.90;;;;;;5031869;28;20292;-91
2021/04/06 02:22:54;;;;;;;3.00;2.13;;;-2.60;99.90;;;;;;5031801;28;20221;-91
2021/04/06 02:25:20;;;;;;;2.47;2.10;;;-2.60;99.90;;;;;;5032028;28;20568;-92
2021/04/06 02:27:46;;;;;;;4.18;1.63;;;-2.60;99.90;;;;;;5031836;28;20230;-91
2021/04/06 02:30:14;;;;;;;6.13;2.47;;;-2.60;99.90;;;;;;5031559;28;20205;-91
2021/04/06 02:32:41;;;;;;;2.90;2.03;;;-2.60;99.90;;;;;;5031849;28;20209;-91
2021/04/06 02:35:10;;;;;;;2.95;2.03;;;-2.60;99.90;;;;;;5031725;28;20666;-91
2021/04/06 02:37:39;;;;;;;5.15;2.75;;;-2.60;99.90;;;;;;5031430;28;20271;-91
2021/04/06 02:40:08;;;;;;;3.05;1.77;;;-2.60;99.90;;;;;;5031679;28;20209;-91
2021/04/06 02:42:35;;;;;;;6.20;2.33;;;-2.60;99.90;;;;;;5032257;28;20264;-91
2021/04/06 02:45:10;;;;;;;6.13;2.35;;;-2.60;99.90;;;;;;5031507;28;20292;-91
2021/04/06 02:47:41;;;;;;;2.50;2.05;;;-2.60;99.90;;;;;;5031379;28;20724;-91
2021/04/06 02:50:10;;;;;;;2.17;1.70;;;-2.60;99.90;;;;;;5031180;28;20226;-91
2021/04/06 02:52:39;;;;;;;4.97;2.30;;;-2.60;99.90;;;;;;5032529;28;20209;-91
2021/04/06 02:55:08;;;;;;;2.53;1.83;;;-2.60;99.90;;;;;;5035001;28;20202;-91
2021/04/06 02:57:39;;;;;;;5.10;2.40;;;-2.60;99.90;;;;;;5031278;28;20236;-91
2021/04/06 03:00:06;;;;;;;3.05;1.80;;;-2.60;99.90;;;;;;5031355;28;20208;-91
2021/04/06 03:02:39;;;;;;;2.50;2.30;;;-2.70;99.90;;;;;;5030977;28;20206;-91
2021/04/06 03:05:06;;;;;;;3.58;1.98;;;-2.60;99.90;;;;;;5031151;28;20582;-91
2021/04/06 03:07:32;;;;;;;6.43;2.15;;;-2.60;99.90;;;;;;5030746;28;20240;-91
2021/04/06 03:10:00;;;;;;;2.88;2.30;;;-2.60;99.90;;;;;;5030764;28;20205;-91
2021/04/06 03:12:28;;;;;;;3.20;2.33;;;-2.60;99.90;;;;;;5030781;28;20697;-91
2021/04/06 03:14:55;;;;;;;4.00;2.08;;;-2.60;99.90;;;;;;5030892;28;20217;-90
2021/04/06 03:17:22;;;;;;;4.80;2.47;;;-2.60;99.90;;;;;;5030789;28;20229;-91
2021/04/06 03:19:56;;;;;;;4.15;2.78;;;-2.60;99.90;;;;;;5030954;28;20688;-91
2021/04/06 03:22:24;;;;;;;3.30;2.22;;;-2.60;99.90;;;;;;5031028;28;20247;-92
2021/04/06 03:24:51;;;;;;;4.75;2.67;;;-2.60;99.90;;;;;;5031395;28;20202;-91
2021/04/06 03:27:27;;;;;;;3.15;2.55;;;-2.60;99.90;;;;;;5030713;28;20218;-91
2021/04/06 03:29:53;;;;;;;3.35;2.17;;;-2.60;99.90;;;;;;5032301;28;20213;-91
2021/04/06 03:32:22;;;;;;;2.22;2.00;;;-2.60;99.90;;;;;;5030716;28;20212;-91
2021/04/06 03:34:48;;;;;;;3.63;2.42;;;-2.70;99.90;;;;;;5030844;28;20284;-90
2021/04/06 03:37:16;;;;;;;4.85;2.45;;;-2.70;99.90;;;;;;5031088;28;20229;-92
2021/04/06 03:39:42;;;;;;;4.00;2.03;;;-2.70;99.90;;;;;;5030528;28;20221;-91
2021/04/06 03:42:09;;;;;;;2.92;2.35;;;-2.70;99.90;;;;;;5032219;28;20205;-90
2021/04/06 03:44:35;;;;;;;4.78;2.72;;;-2.60;99.90;;;;;;5038159;28;20230;-90
2021/04/06 03:47:03;;;;;;;3.67;2.50;;;-2.60;99.90;;;;;;5041565;28;20221;-90
2021/04/06 03:49:32;;;;;;;3.35;2.40;;;-2.60;99.90;;;;;;5042217;28;20214;-91
2021/04/06 03:52:01;;;;;;;3.78;2.03;;;-2.60;99.90;;;;;;5038080;28;20201;-91
2021/04/06 03:54:43;;;;;;;4.50;2.85;;;-2.60;99.90;;;;;;5046895;28;20258;-92
2021/04/06 03:57:36;;;;;;;5.90;2.70;;;-2.60;99.90;;;;;;5041194;28;20651;-91
2021/04/06 04:00:05;;;;;;;3.58;2.67;;;-2.60;99.90;;;;;;5028954;28;20213;-91
2021/04/06 04:02:31;;;;;;;3.75;2.60;;;-2.60;99.90;;;;;;5030890;28;20206;-91
2021/04/06 04:04:57;;;;;;;3.05;2.50;;;-2.60;99.90;;;;;;5032038;28;20210;-91
2021/04/06 04:07:23;;;;;;;3.95;2.40;;;-2.60;99.90;;;;;;5031187;28;20238;-91
2021/04/06 04:09:51;;;;;;;5.00;2.45;;;-2.60;99.90;;;;;;5030340;28;20202;-91
2021/04/06 04:12:17;;;;;;;3.55;2.85;;;-2.70;99.90;;;;;;5030700;28;20208;-92
2021/04/06 04:14:43;;;;;;;4.15;2.97;;;-2.70;99.90;;;;;;5030587;28;20198;-91
2021/04/06 04:17:10;;;;;;;5.60;2.90;;;-2.60;99.90;;;;;;5030616;28;20705;-92
2021/04/06 04:19:36;;;;;;;2.97;2.42;;;-2.60;99.90;;;;;;5044149;28;20201;-92
2021/04/06 04:22:03;;;;;;;7.60;3.20;;;-2.70;99.90;;;;;;5055905;28;20212;-92
2021/04/06 04:24:32;;;;;;;7.70;2.95;;;-2.70;99.90;;;;;;5055496;28;20293;-94
2021/04/06 04:26:59;;;;;;;9.05;2.85;;;-2.70;99.90;;;;;;5034106;28;20294;-92
2021/04/06 04:29:25;;;;;;;6.20;2.92;;;-2.60;99.90;;;;;;5033931;28;20209;-92
2021/04/06 04:31:52;;;;;;;5.53;3.00;;;-2.60;99.90;;;;;;5033858;28;20206;-92
2021/04/06 04:34:18;;;;;;;6.15;2.88;;;-2.60;99.90;;;;;;5033932;28;20671;-92
2021/04/06 04:36:45;;;;;;;7.57;2.65;;;-2.50;99.90;;;;;;5033672;28;20249;-92
2021/04/06 04:39:11;;;;;;;3.05;2.47;;;-2.40;99.90;;;;;;5034019;28;20201;-91
2021/04/06 04:41:37;;;;;;;3.85;2.47;;;-2.30;99.90;;;;;;5033983;28;20201;-92
2021/04/06 04:44:05;;;;;;;4.60;2.85;;;-2.30;99.90;;;;;;5033908;28;20222;-92
2021/04/06 04:46:33;;;;;;;3.10;2.80;;;-2.30;99.90;;;;;;5034072;28;20229;-91
2021/04/06 04:48:59;;;;;;;5.13;2.78;;;-2.30;99.90;;;;;;5033957;28;20206;-92
2021/04/06 04:51:25;;;;;;;4.05;2.63;;;-2.20;99.90;;;;;;5033621;28;20221;-92
2021/04/06 04:53:52;;;;;;;5.05;2.55;;;-2.10;99.90;;;;;;5037083;28;20255;-92
2021/04/06 04:56:18;;;;;;;3.38;2.38;;;-2.20;99.90;;;;;;5034520;28;20206;-92
2021/04/06 04:58:44;;;;;;;6.47;3.08;;;-2.20;99.90;;;;;;5033560;28;20202;-93
2021/04/06 05:01:12;;;;;;;4.45;2.65;;;-2.20;99.90;;;;;;5034228;28;20213;-93
2021/04/06 05:03:39;;;;;;;3.97;2.35;;;-2.20;99.90;;;;;;5033641;28;20210;-92
2021/04/06 05:06:05;;;;;;;9.02;3.00;;;-2.20;99.90;;;;;;5034099;28;20220;-91
2021/04/06 05:08:32;;;;;;;3.35;2.47;;;-2.10;99.90;;;;;;5123638;22;20585;-72
2021/04/06 05:10:58;;;;;;;7.20;2.58;;;-2.10;99.90;;;;;;5070522;28;20197;-72
2021/04/06 05:13:26;;;;;;;5.55;2.95;;;-2.00;99.90;;;;;;5070757;28;20205;-71
2021/04/06 05:15:52;;;;;;;4.55;2.92;;;-1.90;99.90;;;;;;5070803;28;20282;-71
2021/04/06 05:18:19;;;;;;;2.90;2.60;;;-2.00;99.90;;;;;;5069387;28;20220;-72
2021/04/06 05:20:45;;;;;;;6.22;2.80;;;-2.00;99.90;;;;;;5070537;28;20320;-70
2021/04/06 05:23:12;;;;;;;4.05;3.35;;;-2.00;99.90;;;;;;5063513;28;20228;-70
2021/04/06 05:25:38;;;;;;;6.32;3.00;;;-2.00;99.90;;;;;;5047313;28;20209;-71
2021/04/06 05:28:05;;;;;;;6.32;2.47;;;-1.90;99.90;;;;;;5047078;28;20221;-71
2021/04/06 05:30:31;;;;;;;4.65;2.95;;;-1.80;99.90;;;;;;5046839;28;20304;-70
2021/04/06 05:32:58;;;;;;;4.13;2.75;;;-1.80;99.90;;;;;;5047453;28;20209;-71
2021/04/06 05:35:25;;;;;;;5.60;2.63;;;-1.80;99.90;;;;;;5047324;28;20205;-70
2021/04/06 05:37:52;;;;;;;7.40;3.30;;;-1.80;99.90;;;;;;5045359;28;20221;-69
2021/04/06 05:40:19;;;;;;;9.55;2.97;;;-1.70;99.90;;;;;;5046614;28;20696;-71
2021/04/06 05:42:45;;;;;;;5.18;2.58;;;-1.70;99.90;;;;;;5046706;28;20221;-70
2021/04/06 05:45:12;;;;;;;5.47;2.80;;;-1.70;99.90;;;;;;5047177;28;20201;-70
2021/04/06 05:47:44;;;;;;;4.75;3.20;;;-1.70;99.90;;;;;;5046766;28;20216;-70
2021/04/06 05:50:12;;;;;;;6.30;3.22;;;-1.70;99.90;;;;;;5046730;28;20197;-70
2021/04/06 05:52:39;;;;;;;5.25;2.90;;;-1.60;99.90;;;;;;5047347;28;20299;-70
2021/04/06 05:55:07;;;;;;;2.92;2.40;;;-1.60;99.90;;;;;;5047110;28;20634;-70
2021/04/06 05:57:34;;;;;;;4.03;2.97;;;-1.70;99.90;;;;;;5046416;28;20221;-69
2021/04/06 06:00:01;;;;;;;7.22;2.70;;;-1.60;99.90;;;;;;5045496;28;20299;-70
2021/04/06 06:02:29;;;;;;;6.60;2.47;;;-1.50;99.90;;;;;;5047027;28;20417;-69
2021/04/06 06:04:57;;;;;;;3.40;2.70;;;-1.40;99.90;;;;;;5047142;28;20221;-68
2021/04/06 06:07:23;;;;;;;3.05;2.67;;;-1.40;99.90;;;;;;5047144;28;20274;-70
2021/04/06 06:09:51;;;;;;;4.82;2.95;;;-1.30;99.90;;;;;;5045722;28;20208;-70
2021/04/06 06:12:18;;;;;;;8.32;3.00;;;-1.30;99.90;;;;;;5046912;28;20211;-70
2021/04/06 06:14:48;;;;;;;5.57;2.75;;;-1.20;99.90;;;;;;5045946;28;20233;-70
2021/04/06 06:17:16;;;;;;;3.17;2.85;;;-1.10;99.90;;;;;;5046398;28;20564;-70
2021/04/06 06:19:44;;;;;;;7.30;3.20;;;-1.00;99.90;;;;;;5045928;28;20209;-70
2021/04/06 06:22:13;;;;;;;4.93;2.58;;;-0.90;99.90;;;;;;5046496;28;20732;-69
2021/04/06 06:24:43;;;;;;;11.48;2.80;;;-0.90;99.90;;;;;;5046773;28;20723;-70
2021/04/06 06:27:35;;;;;;;8.50;2.63;;;-1.00;99.90;;;;;;5046350;28;20274;-69
2021/04/06 06:30:27;;;;;;;12.25;3.08;;;-0.90;99.90;;;;;;5045725;28;20300;-69
2021/04/06 06:33:14;;;;;;;5.47;3.25;;;-0.80;99.90;;;;;;5065813;28;20208;-70
2021/04/06 06:35:41;;;;;;;4.65;2.75;;;-0.70;99.90;;;;;;5066209;28;20635;-70
2021/04/06 06:38:18;;;;;;;7.20;3.30;;;-0.60;99.90;;;;;;5065082;28;20565;-70
2021/04/06 06:40:46;;;;;;;5.15;3.30;;;-0.50;99.90;;;;;;5065562;28;20619;-70
2021/04/06 06:43:15;;;;;;;7.35;3.10;;;-0.40;99.90;;;;;;5065935;28;20224;-69
2021/04/06 06:45:41;;;;;;;6.28;2.60;;;-0.30;99.90;;;;;;5065226;28;20300;-70
2021/04/06 06:48:09;;;;;;;3.53;3.08;;;-0.30;99.90;;;;;;5065888;28;20281;-70
2021/04/06 06:50:46;;;;;;;6.70;2.88;;;-0.20;99.90;;;;;;5065761;28;20207;-71
2021/04/06 06:53:12;;;;;;;6.65;3.40;;;-0.30;99.90;;;;;;5066003;28;20201;-70
2021/04/06 06:55:39;;;;;;;5.38;2.78;;;-0.20;99.90;;;;;;5066747;28;20258;-70
2021/04/06 06:58:07;;;;;;;4.13;2.22;;;-0.10;99.90;;;;;;5067240;28;20762;-70
2021/04/06 07:00:34;;;;;;;3.70;2.72;;;0.00;99.90;;;;;;5068982;28;20675;-70
2021/04/06 07:03:01;;;;;;;5.35;2.92;;;0.00;99.90;;;;;;5068591;28;20584;-70
2021/04/06 07:05:29;;;;;;;5.15;3.00;;;0.10;99.90;;;;;;5069059;28;20205;-70
2021/04/06 07:08:01;;;;;;;5.22;2.58;;;0.20;99.90;;;;;;5068373;28;20228;-70
2021/04/06 07:10:29;;;;;;;11.80;2.75;;;0.30;99.90;;;;;;5069396;28;20643;-70
2021/04/06 07:13:08;;;;;;;9.73;3.00;;;0.40;99.90;;;;;;5068703;28;20197;-70
2021/04/06 07:15:38;;;;;;;5.38;2.42;;;0.60;99.90;;;;;;5068720;28;20748;-69
2021/04/06 07:18:09;;;;;;;4.25;2.25;;;0.70;99.90;;;;;;5040349;28;20337;-70
2021/04/06 07:20:39;;;;;;;7.45;2.78;;;0.80;99.90;;;;;;5047291;28;20317;-70
2021/04/06 07:23:09;;;;;;;3.13;2.10;;;0.80;99.90;;;;;;5046557;28;20362;-69
2021/04/06 07:25:36;;;;;;;6.97;2.90;;;0.90;99.90;;;;;;5048145;28;20200;-70
2021/04/06 07:28:03;;;;;;;9.32;2.70;;;0.90;99.90;;;;;;5046804;28;20229;-69
2021/04/06 07:30:30;;;;;;;8.73;2.72;;;1.00;99.90;;;;;;5048013;28;20212;-69
2021/04/06 07:32:58;;;;;;;8.50;2.45;;;1.00;99.90;;;;;;5047039;28;20212;-69
2021/04/06 07:35:26;;;;;;;4.35;2.55;;;1.00;99.90;;;;;;5046515;28;20577;-70
2021/04/06 07:37:53;;;;;;;6.30;2.92;;;1.10;99.90;;;;;;5048287;28;20225;-70
2021/04/06 07:40:22;;;;;;;7.10;2.70;;;1.20;99.90;;;;;;5047890;28;20205;-69
2021/04/06 07:42:49;;;;;;;6.60;2.78;;;1.30;99.90;;;;;;5047440;28;20200;-69
2021/04/06 07:45:41;;;;;;;2.45;2.25;;;1.30;99.90;;;;;;5046747;28;20220;-69
2021/04/06 07:48:10;;;;;;;5.68;2.90;;;1.20;99.90;;;;;;5038638;28;20589;-69
2021/04/06 07:50:41;;;;;;;6.65;2.72;;;1.40;99.90;;;;;;5048106;28;20208;-70
2021/04/06 07:53:25;;;;;;;5.70;2.58;;;1.70;99.90;;;;;;5046124;28;20675;-70
2021/04/06 07:55:52;;;;;;;7.18;3.42;;;2.00;99.90;;;;;;5047269;28;20205;-69
2021/04/06 07:58:44;;;;;;;6.35;2.60;;;2.10;99.90;;;;;;5047210;28;20217;-69
2021/04/06 08:01:12;;;;;;;6.63;2.50;;;2.10;98.90;;;;;;5047919;28;20201;-70
2021/04/06 08:04:02;;;;;;;3.13;2.17;;;2.10;99.50;;;;;;5049499;28;20255;-70
2021/04/06 08:06:39;;;;;;;6.55;3.00;;;2.20;99.50;;;;;;5050941;28;20213;-70
2021/04/06 08:09:43;;;;;;;4.28;2.67;;;2.30;99.00;;;;;;5051179;28;20240;-69
2021/04/06 08:12:11;;;;;;;5.10;2.78;;;2.20;98.90;;;;;;5051474;28;20209;-70
2021/04/06 08:14:39;;;;;;;3.28;2.08;;;2.30;99.60;;;;;;5044256;28;20221;-69
2021/04/06 08:17:43;;;;;;;10.48;3.10;;;2.40;98.70;;;;;;5050038;28;20294;-69
2021/04/06 08:20:22;;;;;;;6.22;2.20;;;2.30;98.90;;;;;;5050160;28;20208;-68
2021/04/06 08:22:52;;;;;;;6.82;2.60;;;2.30;98.90;;;;;;5050199;28;20201;-69
2021/04/06 08:25:54;;;;;;;3.35;2.20;;;2.00;98.90;;;;;;5048147;28;20221;-70
2021/04/06 08:28:40;;;;;;;6.85;3.28;;;2.00;99.60;;;;;;5044656;28;20279;-69
2021/04/06 08:31:36;;;;;;;8.10;3.10;;;2.10;99.40;;;;;;5050252;28;20672;-70
2021/04/06 08:34:28;;;;;;;3.42;2.28;;;2.20;99.80;;;;;;5048551;28;20201;-69
2021/04/06 08:37:12;;;;;;;7.35;2.50;;;2.20;99.00;;;;;;5030499;28;20205;-69
2021/04/06 08:39:39;;;;;;;8.75;2.55;;;2.30;98.70;;;;;;5050255;28;20266;-69
2021/04/06 08:42:06;;;;;;;2.40;2.20;;;2.20;98.50;;;;;;5050054;28;20205;-69
2021/04/06 08:44:35;;;;;;;6.20;2.35;;;2.20;98.90;;;;;;5048501;28;20229;-68
2021/04/06 08:47:02;;;;;;;4.75;2.45;;;2.30;98.90;;;;;;5050131;28;20197;-71
2021/04/06 08:49:28;;;;;;;4.03;2.20;;;2.30;98.80;;;;;;5049843;28;20201;-69
2021/04/06 08:51:56;;;;;;;3.80;2.35;;;2.20;98.40;;;;;;5049847;28;20201;-70
2021/04/06 08:54:26;;;;;;;7.45;3.00;;;2.20;98.40;;;;;;5048483;28;20446;-70
2021/04/06 08:56:55;;;;;;;5.22;2.75;;;2.10;98.20;;;;;;5048574;28;20459;-69
2021/04/06 08:59:25;;;;;;;6.03;2.63;;;2.10;98.80;;;;;;5049499;28;20321;-70
2021/04/06 09:01:55;;;;;;;6.20;2.58;;;2.10;98.70;;;;;;5049906;28;20252;-70
2021/04/06 09:04:23;;;;;;;5.18;2.88;;;2.30;98.80;;;;;;5048881;28;20225;-70
2021/04/06 09:06:50;;;;;;;4.25;2.20;;;2.40;98.30;;;;;;5049941;28;20208;-70
2021/04/06 09:09:19;;;;;;;2.45;2.05;;;2.50;98.80;;;;;;5048785;28;20241;-70
2021/04/06 09:11:48;;;;;;;4.00;2.50;;;2.70;98.50;;;;;;5049451;28;20205;-71
2021/04/06 09:14:15;;;;;;;4.35;2.30;;;2.90;97.80;;;;;;5047250;28;20201;-70
2021/04/06 09:16:42;;;;;;;5.97;3.03;;;3.10;97.20;;;;;;5049136;28;20212;-69
2021/04/06 09:19:10;;;;;;;6.80;2.70;;;3.10;97.10;;;;;;5047555;28;20586;-70
2021/04/06 09:21:37;;;;;;;10.68;3.38;;;3.20;97.40;;;;;;5049484;28;20216;-69
2021/04/06 09:24:06;;;;;;;9.98;2.75;;;3.20;97.50;;;;;;5047768;28;20302;-69
2021/04/06 09:26:33;;;;;;;3.17;2.50;;;3.30;97.60;;;;;;5054269;28;20203;-68
2021/04/06 09:29:09;;;;;;;4.90;2.28;;;3.70;97.00;;;;;;5048705;28;20487;-70
2021/04/06 09:31:38;;;;;;;6.75;2.40;;;4.00;96.10;;;;;;5049242;28;20205;-70
2021/04/06 09:34:07;;;;;;;2.72;2.10;;;4.40;95.30;;;;;;5046257;28;20325;-69
2021/04/06 09:36:34;;;;;;;3.28;2.50;;;4.70;95.40;;;;;;5049361;28;20236;-69
2021/04/06 09:39:03;;;;;;;3.85;1.75;;;4.80;94.00;;;;;;5048445;28;20766;-68
2021/04/06 09:41:31;;;;;;;5.70;2.42;;;5.00;93.70;;;;;;5049631;28;20303;-68
2021/04/06 09:43:58;;;;;;;3.40;2.50;;;5.00;92.60;;;;;;5046669;28;20267;-70
2021/04/06 09:46:41;;;;;;;3.08;2.03;;;4.80;92.60;;;;;;5049444;28;20295;-70
2021/04/06 09:49:09;;;;;;;4.90;2.35;;;4.70;92.60;;;;;;5048509;28;20252;-70
2021/04/06 09:51:35;;;;;;;8.32;2.22;;;4.60;93.80;;;;;;5048724;28;20262;-70
2021/04/06 09:54:03;;;;;;;7.40;3.15;;;4.60;93.50;;;;;;5047324;28;20284;-69
2021/04/06 09:56:30;;;;;;;3.10;1.77;;;4.60;93.70;;;;;;5048496;28;20209;-70
2021/04/06 09:58:57;;;;;;;5.47;2.20;;;4.40;92.60;;;;;;5046513;28;20541;-70
2021/04/06 10:01:25;;;;;;;3.15;1.60;;;4.30;92.30;;;;;;5048482;28;20205;-69
2021/04/06 10:03:55;;;;;;;3.10;1.45;;;4.50;92.10;;;;;;5046577;28;20584;-70
2021/04/06 10:06:21;;;;;;;2.03;1.70;;;5.00;92.50;;;;;;5048323;28;20258;-69
2021/04/06 10:08:48;;;;;;;6.93;2.35;;;5.50;91.80;;;;;;5047307;28;20229;-70
2021/04/06 10:11:23;;;;;;;3.83;1.75;;;5.80;91.30;;;;;;5048066;28;20573;-69
2021/04/06 10:13:50;;;;;;;6.03;2.10;;;6.10;90.90;;;;;;5045309;28;20199;-70
2021/04/06 10:16:17;;;;;;;3.03;2.30;;;6.10;90.40;;;;;;5050572;28;20199;-69
2021/04/06 10:18:47;;;;;;;6.88;2.60;;;6.00;90.90;;;;;;5058699;28;20239;-70
2021/04/06 10:21:24;;;;;;;3.20;1.80;;;5.80;90.00;;;;;;5055246;28;20593;-69
2021/04/06 10:23:58;;;;;;;3.25;1.58;;;5.20;89.70;;;;;;5046681;28;20216;-70
2021/04/06 10:26:25;;;;;;;3.50;1.60;;;4.90;91.10;;;;;;5047984;28;20204;-70
2021/04/06 10:29:03;;;;;;;5.20;2.05;;;4.80;91.90;;;;;;5047379;28;20662;-70
2021/04/06 10:31:47;;;;;;;4.60;2.63;;;5.00;92.20;;;;;;5048737;28;20247;-69
2021/04/06 10:34:14;;;;;;;3.45;2.38;;;5.00;91.20;;;;;;5046919;28;20208;-69
2021/04/06 10:36:54;;;;;;;5.60;2.13;;;5.30;92.20;;;;;;5048346;28;20209;-69
2021/04/06 10:39:31;;;;;;;3.10;1.85;;;6.60;90.60;;;;;;5048243;28;20232;-69
2021/04/06 10:41:58;;;;;;;2.17;1.55;;;8.30;86.30;;;;;;5048468;28;20208;-70
2021/04/06 10:44:25;;;;;;;4.22;1.70;;;8.80;80.80;;;;;;5045069;28;20228;-70
2021/04/06 10:46:51;;;;;;;3.33;2.00;;;8.30;78.60;;;;;;5047380;28;20338;-69
2021/04/06 10:49:18;;;;;;;5.93;2.00;;;7.50;81.50;;;;;;5048586;28;20217;-69
2021/04/06 10:51:50;;;;;;;2.40;1.70;;;7.00;85.20;;;;;;5047981;28;20243;-69
2021/04/06 10:54:18;;;;;;;11.75;2.40;;;6.80;83.80;;;;;;5045551;28;20193;-70
2021/04/06 10:56:46;;;;;;;4.15;2.55;;;6.50;84.40;;;;;;5047696;28;20287;-69
2021/04/06 10:59:14;;;;;;;5.15;2.28;;;6.40;88.30;;;;;;5048297;28;20230;-70
2021/04/06 11:01:42;;;;;;;2.55;2.00;;;7.70;86.00;;;;;;5048724;28;20216;-69
2021/04/06 11:04:11;;;;;;;3.88;2.47;;;9.00;80.50;;;;;;5044434;28;20232;-70
2021/04/06 11:06:39;;;;;;;2.58;1.75;;;9.10;76.70;;;;;;5046802;28;20578;-71
2021/04/06 11:09:14;;;;;;;4.03;2.30;;;8.50;77.60;;;;;;5047096;28;20240;-71
2021/04/06 11:11:42;;;;;;;3.38;1.90;;;8.20;79.90;;;;;;5131183;22;20262;-92
2021/04/06 11:14:11;;;;;;;5.15;2.03;;;9.20;77.10;;;;;;5090213;28;20212;-93
2021/04/06 11:16:40;;;;;;;4.07;1.88;;;10.70;74.50;;;;;;5097258;28;20234;-91
2021/04/06 11:19:09;;;;;;;2.33;1.90;;;11.60;71.10;;;;;;5096972;28;20181;-91
2021/04/06 11:21:38;;;;;;;4.22;2.00;;;10.90;67.80;;;;;;5096964;28;20197;-91
2021/04/06 11:24:05;;;;;;;4.15;2.17;;;10.00;67.70;;;;;;5090644;28;20242;-91
2021/04/06 11:26:35;;;;;;;5.35;1.90;;;8.90;74.00;;;;;;5095360;28;20256;-91
2021/04/06 11:29:04;;;;;;;6.43;2.10;;;8.40;73.60;;;;;;5102146;22;20254;-70
2021/04/06 11:31:31;;;;;;;4.88;2.35;;;9.40;74.60;;;;;;5065526;28;20211;-70
2021/04/06 11:33:57;;;;;;;2.60;1.98;;;10.70;71.20;;;;;;5063389;28;20596;-71
2021/04/06 11:36:24;;;;;;;4.53;2.03;;;11.40;68.90;;;;;;5067824;28;20204;-73
2021/04/06 11:38:50;;;;;;;3.97;1.90;;;12.10;65.00;;;;;;5070472;28;20595;-72
2021/04/06 11:41:17;;;;;;;5.50;2.30;;;12.20;64.90;;;;;;5071776;28;20200;-72
2021/04/06 11:43:44;;;;;;;4.10;2.17;;;11.70;66.50;;;;;;5068583;28;20223;-72
2021/04/06 11:46:11;;;;;;;4.25;2.30;;;11.10;67.80;;;;;;5070635;28;20216;-71
2021/04/06 11:48:37;;;;;;;2.22;1.50;;;10.30;66.70;;;;;;5070328;28;20220;-71
2021/04/06 11:51:03;;;;;;;3.65;1.98;;;9.10;71.30;;;;;;5069830;28;20667;-72
2021/04/06 11:53:30;;;;;;;4.47;2.42;;;7.90;72.90;;;;;;5069282;28;20208;-71
2021/04/06 11:55:56;;;;;;;5.10;2.50;;;7.60;76.50;;;;;;5069996;28;20200;-71
2021/04/06 11:58:22;;;;;;;3.30;2.30;;;7.60;75.10;;;;;;5070279;28;20216;-71
2021/04/06 12:00:50;;;;;;;5.10;2.47;;;7.70;73.90;;;;;;5069450;28;20200;-71
2021/04/06 12:03:16;;;;;;;3.60;2.00;;;7.80;72.90;;;;;;5070667;28;20204;-71
2021/04/06 12:05:43;;;;;;;4.15;2.17;;;7.20;73.50;;;;;;5068691;28;20200;-71
2021/04/06 12:08:10;;;;;;;6.53;2.70;;;6.60;74.80;;;;;;5069449;28;20730;-71
2021/04/06 12:10:37;;;;;;;4.70;2.35;;;6.80;76.50;;;;;;5070525;28;20246;-71
2021/04/06 12:13:03;;;;;;;4.80;2.10;;;8.20;74.30;;;;;;5070803;28;20258;-71
2021/04/06 12:15:29;;;;;;;4.00;2.22;;;8.90;70.30;;;;;;5068188;28;20671;-71
2021/04/06 12:17:56;;;;;;;4.93;2.20;;;9.50;69.00;;;;;;5069490;28;20224;-71
2021/04/06 12:20:23;;;;;;;3.83;2.20;;;10.70;68.00;;;;;;5070964;28;20679;-71
2021/04/06 12:22:50;;;;;;;4.40;1.90;;;10.50;63.00;;;;;;5069789;28;20654;-71
2021/04/06 12:25:17;;;;;;;4.80;2.00;;;9.80;66.00;;;;;;5068245;28;20274;-72
2021/04/06 12:27:45;;;;;;;3.58;1.90;;;10.00;67.40;;;;;;5069637;28;20621;-71
2021/04/06 12:30:12;;;;;;;4.60;2.53;;;10.90;63.40;;;;;;5070131;28;20261;-71
2021/04/06 12:32:38;;;;;;;3.17;2.10;;;11.70;63.90;;;;;;5070354;28;20212;-72
2021/04/06 12:35:07;;;;;;;2.15;1.33;;;12.50;62.10;;;;;;5068198;28;20203;-71
2021/04/06 12:37:33;;;;;;;2.90;1.95;;;12.10;59.90;;;;;;5070239;28;20228;-72
2021/04/06 12:40:00;;;;;;;4.95;2.10;;;11.30;58.50;;;;;;5069504;28;20239;-72
2021/04/06 12:42:27;;;;;;;4.68;2.33;;;10.70;62.40;;;;;;5069961;28;20201;-71
2021/04/06 12:44:53;;;;;;;4.93;1.88;;;10.80;60.00;;;;;;5067298;28;20239;-71
2021/04/06 12:47:20;;;;;;;2.65;1.60;;;10.90;59.70;;;;;;5068633;28;20643;-71
2021/04/06 12:49:47;;;;;;;2.83;1.55;;;10.90;59.90;;;;;;5069510;28;20618;-72
2021/04/06 12:52:16;;;;;;;4.93;1.75;;;11.60;58.60;;;;;;5070448;28;20205;-70
2021/04/06 12:54:43;;;;;;;1.73;1.60;;;12.40;60.00;;;;;;5067771;28;20231;-71
2021/04/06 12:57:10;;;;;;;2.43;1.50;;;13.30;55.70;;;;;;5067952;28;20208;-71
2021/04/06 12:59:36;;;;;;;2.80;1.70;;;13.40;54.10;;;;;;5071639;28;20454;-71
2021/04/06 13:02:02;;;;;;;2.27;1.70;;;13.20;53.00;;;;;;5071850;28;20458;-71